Terminal Aerodrome Forecast
Issued by NWS Charleston, WV

Current Version | Previous Version | Graphics & Text | Print | Product List | Glossary On
Versions: 1 2 3 4 5 6 7 8 9 10 11 12 13 14 15 16 17 18 19 20 21 22 23 24 25 26
597
FTUS41 KRLX 272101 AAB
TAFBKW
TAF AMD
KBKW 272101Z 2721/2818 28007KT P6SM -SHRA SCT070 BKN120
     FM280100 VRB02KT P6SM SCT050 BKN070
     FM280600 00000KT 5SM BR BKN050
     FM281200 00000KT P6SM VCTS BKN050CB
     FM281400 00000KT 4SM TSRA BR SCT015 OVC030CB=

USA.gov is the U.S. government's official web portal to all federal, state and local government web resources and services.